Time;durP1;ratioP1;P1;durP2;ratioP2;P2;SDS_P1;SDS_P2;PMS_P1;PMS_P2;Temp;Humidity;BMP_temperature;BMP_pressure;BME280_temperature;BME280_humidity;BME280_pressure;Samples;Min_cycle;Max_cycle;Signal;HPM_P1;HPM_P2
2022/12/02 00:01:40;;;;;;;4.63;3.50;;;;;;;7.10;77.13;99982.78;5051846;28;19909;-79
2022/12/02 00:04:27;;;;;;;3.72;3.35;;;;;;;7.36;76.67;99998.69;5053095;28;20104;-79
2022/12/02 00:06:54;;;;;;;4.55;3.60;;;;;;;6.49;76.95;99873.88;5051613;28;20029;-80
2022/12/02 00:09:33;;;;;;;3.13;2.83;;;;;;;7.41;76.76;99996.44;5052641;28;20045;-80
2022/12/02 00:12:10;;;;;;;3.85;3.10;;;;;;;7.41;76.92;100005.16;5052611;28;20029;-79
2022/12/02 00:14:37;;;;;;;3.85;3.30;;;;;;;7.36;76.93;100007.38;5034861;28;20486;-79
2022/12/02 00:17:02;;;;;;;3.30;2.92;;;;;;;7.22;76.77;99978.97;5052687;28;20017;-79
2022/12/02 00:19:28;;;;;;;3.40;2.95;;;;;;;7.27;76.65;99974.13;5034849;28;20028;-79
2022/12/02 00:21:53;;;;;;;3.72;3.42;;;;;;;6.99;77.17;99941.78;5034737;28;20099;-79
2022/12/02 00:24:19;;;;;;;3.40;3.10;;;;;;;7.48;77.11;100006.25;5052533;28;20486;-79
2022/12/02 00:26:45;;;;;;;3.60;3.00;;;;;;;7.11;77.30;99953.75;5052352;28;20509;-79
2022/12/02 00:29:10;;;;;;;3.58;3.10;;;;;;;6.85;77.13;99900.25;5051816;28;20486;-79
2022/12/02 00:31:36;;;;;;;3.30;2.92;;;;;;;6.85;77.12;99911.59;5052326;28;20036;-79
2022/12/02 00:34:02;;;;;;;3.53;3.22;;;;;;;7.51;77.12;100002.50;5052544;28;20033;-79
2022/12/02 00:36:28;;;;;;;3.45;2.80;;;;;;;6.88;77.11;99892.94;5052269;28;20028;-79
2022/12/02 00:38:54;;;;;;;2.70;2.50;;;;;;;7.14;76.67;99945.56;5052748;28;20020;-79
2022/12/02 00:41:20;;;;;;;3.60;3.28;;;;;;;7.53;77.04;100001.38;5052167;28;20024;-80
2022/12/02 00:46:32;;;;;;;3.13;2.80;;;;;;;7.52;76.93;100002.34;5052096;28;20495;-80
2022/12/02 00:48:58;;;;;;;3.08;2.40;;;;;;;7.53;77.00;99990.03;5034215;28;20017;-80
2022/12/02 00:51:25;;;;;;;2.60;2.08;;;;;;;7.49;77.30;100005.28;5051944;28;20032;-79
2022/12/02 00:53:50;;;;;;;2.33;2.13;;;;;;;7.25;77.34;99960.31;5052293;28;20029;-79
2022/12/02 00:56:16;;;;;;;3.50;3.13;;;;;;;6.86;76.95;99879.13;5034169;28;20021;-80
2022/12/02 00:58:41;;;;;;;6.20;3.50;;;;;;;7.26;77.39;99957.53;5051883;28;20509;-79
2022/12/02 01:01:07;;;;;;;4.00;3.08;;;;;;;7.56;77.23;99992.38;5051840;28;20025;-79
2022/12/02 01:03:33;;;;;;;3.25;2.95;;;;;;;6.78;76.65;99865.91;5033864;28;20020;-79
2022/12/02 01:05:58;;;;;;;2.70;2.50;;;;;;;7.25;77.05;99961.13;5033781;28;20028;-80
2022/12/02 01:08:26;;;;;;;2.30;2.10;;;;;;;6.76;77.40;99885.38;5036659;28;20128;-80
2022/12/02 01:10:52;;;;;;;2.45;2.25;;;;;;;7.51;77.58;100005.13;5066988;28;20498;-79
2022/12/02 01:13:18;;;;;;;1.98;1.77;;;;;;;7.30;77.56;99971.19;5051778;28;20036;-80
2022/12/02 01:15:43;;;;;;;1.95;1.85;;;;;;;7.19;77.52;99955.63;5052343;28;20029;-79
2022/12/02 01:18:08;;;;;;;2.60;2.10;;;;;;;6.96;77.08;99921.91;5051637;28;20104;-79
2022/12/02 01:20:34;;;;;;;2.10;2.00;;;;;;;6.70;77.56;99863.19;5051868;28;20017;-79
2022/12/02 01:22:59;;;;;;;2.50;2.30;;;;;;;6.52;77.38;99833.41;5051608;28;20493;-80
2022/12/02 01:25:25;;;;;;;2.58;2.33;;;;;;;6.89;77.34;99912.94;5051328;28;20028;-79
2022/12/02 01:27:50;;;;;;;2.30;2.10;;;;;;;6.92;77.00;99917.91;5051323;28;20025;-80
2022/12/02 01:30:15;;;;;;;2.22;2.08;;;;;;;7.13;77.73;99929.97;5051156;28;20052;-79
2022/12/02 01:32:41;;;;;;;2.55;2.35;;;;;;;7.01;77.76;99927.53;5066623;28;20560;-79
2022/12/02 01:35:06;;;;;;;2.38;2.17;;;;;;;7.36;77.70;99967.16;5051392;28;20021;-79
2022/12/02 01:37:32;;;;;;;2.58;2.38;;;;;;;7.12;77.80;99933.56;5051446;28;20017;-79
2022/12/02 01:39:57;;;;;;;3.08;2.80;;;;;;;7.09;77.09;99929.44;5051072;28;20101;-79
2022/12/02 01:42:23;;;;;;;2.50;2.30;;;;;;;6.49;77.38;99823.22;5051103;28;20386;-79
2022/12/02 01:44:48;;;;;;;2.95;2.30;;;;;;;6.46;77.41;99826.13;5051357;28;20025;-79
2022/12/02 01:47:14;;;;;;;3.35;2.60;;;;;;;6.79;77.67;99883.31;5050108;28;20516;-79
2022/12/02 01:49:39;;;;;;;2.47;2.28;;;;;;;7.25;77.69;99955.06;5051259;28;20442;-80
2022/12/02 01:52:05;;;;;;;3.33;3.03;;;;;;;6.63;77.65;99860.28;5049817;28;20486;-80
2022/12/02 01:54:31;;;;;;;3.50;2.78;;;;;;;7.55;77.59;99988.09;5066575;28;20033;-79
2022/12/02 01:56:57;;;;;;;3.42;3.08;;;;;;;6.88;77.32;99877.19;5051052;28;20028;-80
2022/12/02 01:59:23;;;;;;;4.53;3.15;;;;;;;6.82;77.11;99880.38;5050961;28;20021;-79
2022/12/02 02:01:48;;;;;;;3.80;3.13;;;;;;;7.57;77.43;100029.00;5050914;28;20398;-79
2022/12/02 02:04:13;;;;;;;4.13;3.72;;;;;;;7.26;77.26;99939.16;5049748;28;20035;-79
2022/12/02 02:06:42;;;;;;;4.65;4.00;;;;;;;6.81;77.38;99889.22;5051077;28;20043;-79
2022/12/02 02:09:08;;;;;;;3.88;3.15;;;;;;;7.16;77.24;99951.50;5050921;28;20489;-79
2022/12/02 02:11:35;;;;;;;3.75;3.00;;;;;;;7.50;77.31;99998.22;5051113;28;20028;-80
2022/12/02 02:14:03;;;;;;;5.25;3.70;;;;;;;5.75;77.32;99725.19;5033139;28;20486;-80
2022/12/02 02:16:29;;;;;;;4.25;3.60;;;;;;;6.80;77.59;99879.72;5050964;28;20521;-80
2022/12/02 02:18:54;;;;;;;3.50;3.20;;;;;;;7.53;77.37;99990.03;5033407;28;20025;-80
2022/12/02 02:21:25;;;;;;;4.10;3.28;;;;;;;7.57;77.55;99992.22;5051066;28;20088;-80
2022/12/02 02:23:50;;;;;;;4.55;3.90;;;;;;;7.34;77.75;99952.38;5054435;28;20048;-79
2022/12/02 02:26:16;;;;;;;3.65;3.33;;;;;;;7.24;77.64;99945.53;5035295;28;20510;-79
2022/12/02 02:28:41;;;;;;;4.18;3.58;;;;;;;7.58;77.32;99993.88;5033083;28;20021;-79
2022/12/02 02:31:07;;;;;;;5.15;3.88;;;;;;;7.29;77.09;99961.66;5033108;28;20025;-80
2022/12/02 02:33:34;;;;;;;3.92;3.40;;;;;;;7.57;77.78;99986.97;5050865;28;20538;-80
2022/12/02 02:36:00;;;;;;;4.65;3.53;;;;;;;7.41;77.63;99967.53;5032787;28;20021;-79
2022/12/02 02:38:27;;;;;;;4.07;3.67;;;;;;;7.01;77.33;99911.78;5049393;28;20024;-79
2022/12/02 02:40:54;;;;;;;3.55;3.15;;;;;;;6.87;77.28;99872.91;5032856;28;20098;-79
2022/12/02 02:43:22;;;;;;;2.92;2.70;;;;;;;7.62;77.18;99984.72;5049527;28;20020;-80
2022/12/02 02:45:49;;;;;;;3.17;2.88;;;;;;;6.74;77.28;99851.44;5033252;28;20029;-80
2022/12/02 02:48:17;;;;;;;3.40;3.10;;;;;;;6.88;77.44;99871.09;5052204;28;20417;-80
2022/12/02 02:50:45;;;;;;;3.75;3.30;;;;;;;6.37;77.18;99843.56;5033529;28;20448;-80
2022/12/02 02:53:13;;;;;;;3.42;2.97;;;;;;;6.95;77.38;99877.41;5052346;28;20029;-80
2022/12/02 02:55:38;;;;;;;4.03;3.63;;;;;;;7.31;77.72;99957.09;5036480;28;20083;-79
2022/12/02 02:58:15;;;;;;;4.35;3.22;;;;;;;6.30;77.75;99790.84;5036508;28;20025;-79
2022/12/02 03:00:44;;;;;;;3.83;3.28;;;;;;;7.52;77.91;99991.00;5053949;28;20025;-79
2022/12/02 03:03:13;;;;;;;4.57;3.88;;;;;;;7.16;77.72;99935.75;5053916;28;20047;-79
2022/12/02 03:05:39;;;;;;;4.13;3.72;;;;;;;7.15;77.38;99928.84;5054078;28;20115;-79
2022/12/02 03:08:05;;;;;;;4.82;3.72;;;;;;;6.82;77.59;99880.38;5036493;28;20045;-79
2022/12/02 03:10:31;;;;;;;3.95;3.58;;;;;;;6.91;77.78;99892.63;5053903;28;20032;-79
2022/12/02 03:12:57;;;;;;;3.60;3.30;;;;;;;7.31;77.72;99957.91;5054253;28;20421;-80
2022/12/02 03:15:26;;;;;;;4.18;3.67;;;;;;;7.56;77.55;99997.63;5052523;28;20032;-80
2022/12/02 03:17:52;;;;;;;4.35;3.95;;;;;;;7.18;77.86;99933.81;5069020;28;20025;-79
2022/12/02 03:20:18;;;;;;;6.38;5.15;;;;;;;7.57;77.54;99999.28;5052590;28;20025;-80
2022/12/02 03:22:44;;;;;;;4.68;4.25;;;;;;;6.78;77.70;99858.03;5053725;28;20108;-79
2022/12/02 03:25:10;;;;;;;5.60;4.88;;;;;;;6.65;77.48;99841.78;5053929;28;20025;-79
2022/12/02 03:27:36;;;;;;;5.30;4.80;;;;;;;7.36;77.47;99946.97;5053579;28;20025;-79
2022/12/02 03:30:03;;;;;;;5.20;4.70;;;;;;;7.61;77.30;99988.31;5053718;28;20096;-79
2022/12/02 03:32:28;;;;;;;6.00;5.40;;;;;;;7.62;77.57;99994.41;5053487;28;20078;-79
2022/12/02 03:34:54;;;;;;;6.57;5.88;;;;;;;7.26;77.70;99933.06;5068994;28;20017;-80
2022/12/02 03:37:21;;;;;;;6.75;5.40;;;;;;;7.16;77.36;99920.00;5052251;28;20419;-80
2022/12/02 03:39:47;;;;;;;6.70;5.70;;;;;;;7.52;77.77;99998.91;5053366;28;20025;-79
2022/12/02 03:42:13;;;;;;;7.57;6.20;;;;;;;7.03;77.57;99918.69;5053415;28;20532;-80
2022/12/02 03:44:39;;;;;;;6.95;5.80;;;;;;;7.58;78.03;100006.19;5053267;28;20056;-80
2022/12/02 03:47:04;;;;;;;7.47;6.35;;;;;;;7.64;77.43;100003.78;5053238;28;20056;-80
2022/12/02 03:49:32;;;;;;;7.82;6.30;;;;;;;6.82;77.30;99877.75;5053267;28;20032;-81
2022/12/02 03:51:58;;;;;;;8.77;6.97;;;;;;;7.64;77.71;100006.44;5053248;28;20013;-80
2022/12/02 03:54:24;;;;;;;8.45;6.93;;;;;;;6.77;77.47;99866.88;5053329;28;20036;-79
2022/12/02 03:56:49;;;;;;;9.00;7.63;;;;;;;6.48;77.91;99824.19;5053049;28;20025;-80
2022/12/02 03:59:26;;;;;;;9.27;8.00;;;;;;;7.65;77.63;100015.13;5053082;28;20518;-80
2022/12/02 04:01:52;;;;;;;8.40;7.15;;;;;;;6.51;77.40;99847.50;5051588;28;20032;-80
2022/12/02 04:04:18;;;;;;;12.18;9.13;;;;;;;6.91;77.80;99904.94;5050634;28;20029;-80
2022/12/02 04:06:43;;;;;;;13.77;9.23;;;;;;;7.05;77.62;99945.63;5051433;28;20028;-79
2022/12/02 04:09:08;;;;;;;11.15;8.90;;;;;;;6.92;78.12;99924.97;5052518;28;20045;-80
2022/12/02 04:11:34;;;;;;;9.35;7.78;;;;;;;7.39;78.21;100001.84;5052828;28;20130;-79
2022/12/02 04:13:59;;;;;;;11.60;8.55;;;;;;;6.97;78.18;99978.69;5052955;28;20020;-79
2022/12/02 04:16:25;;;;;;;11.57;7.97;;;;;;;7.17;78.20;99999.59;5052924;28;20434;-79
2022/12/02 04:18:50;;;;;;;9.48;7.65;;;;;;;7.00;78.25;99961.81;5052988;28;20409;-79
2022/12/02 04:21:15;;;;;;;8.95;6.63;;;;;;;7.01;78.01;99952.97;5052640;28;20512;-79
2022/12/02 04:23:41;;;;;;;8.20;6.80;;;;;;;6.91;78.63;99933.81;5052723;28;20023;-79
2022/12/02 04:26:06;;;;;;;10.77;7.93;;;;;;;6.68;77.91;99904.44;5052503;28;20029;-80
2022/12/02 04:28:32;;;;;;;10.63;8.05;;;;;;;7.17;78.38;99995.16;5052366;28;20098;-79
2022/12/02 04:30:57;;;;;;;11.15;8.25;;;;;;;6.74;78.43;99924.06;5052226;28;20048;-79
2022/12/02 04:33:23;;;;;;;10.20;7.43;;;;;;;6.92;78.24;99959.09;5052299;28;20021;-79
2022/12/02 04:35:48;;;;;;;10.13;8.07;;;;;;;7.00;78.34;99967.06;5052388;28;20107;-79
2022/12/02 04:38:14;;;;;;;8.35;5.80;;;;;;;7.34;78.36;100044.31;5052873;28;20025;-79
2022/12/02 04:40:39;;;;;;;11.07;8.35;;;;;;;7.08;78.26;100000.47;5052570;28;20029;-80
2022/12/02 04:43:05;;;;;;;9.30;7.03;;;;;;;7.22;78.44;100016.56;5052208;28;20025;-80
2022/12/02 04:45:31;;;;;;;8.23;6.50;;;;;;;7.13;78.32;100012.19;5052313;28;20025;-78
2022/12/02 04:47:56;;;;;;;7.82;5.40;;;;;;;6.64;78.43;99937.19;5051961;28;20421;-79
2022/12/02 04:50:22;;;;;;;8.32;6.47;;;;;;;6.77;78.47;99950.84;5052107;28;20094;-79
2022/12/02 04:52:47;;;;;;;9.75;7.07;;;;;;;7.46;78.17;100080.94;5052078;28;20020;-79
2022/12/02 04:55:12;;;;;;;8.63;5.72;;;;;;;6.80;78.35;99962.84;5052026;28;20490;-79
2022/12/02 04:57:38;;;;;;;6.75;5.65;;;;;;;6.44;77.92;99894.47;5052043;28;20028;-79
2022/12/02 05:00:05;;;;;;;9.05;6.47;;;;;;;6.74;78.51;99939.81;5051995;28;20414;-79
2022/12/02 05:02:30;;;;;;;8.50;6.68;;;;;;;7.41;78.17;100046.34;5034119;28;20031;-80
2022/12/02 05:04:56;;;;;;;7.50;6.45;;;;;;;7.02;78.49;99999.25;5034138;28;20404;-79
2022/12/02 05:07:21;;;;;;;8.07;6.80;;;;;;;6.86;78.24;99954.41;5052100;28;20554;-80
2022/12/02 05:09:47;;;;;;;10.13;7.60;;;;;;;6.38;78.18;99880.13;5051627;28;20102;-80
2022/12/02 05:12:12;;;;;;;10.52;7.35;;;;;;;6.40;78.26;99879.97;5033648;28;20021;-80
2022/12/02 05:14:37;;;;;;;9.80;7.72;;;;;;;7.66;77.76;100095.63;5033670;28;20043;-80
2022/12/02 05:17:03;;;;;;;8.93;7.28;;;;;;;7.12;77.99;99986.06;5033804;28;20044;-80
2022/12/02 05:19:28;;;;;;;8.90;7.88;;;;;;;7.56;77.60;100073.81;5033718;28;20024;-79
2022/12/02 05:21:53;;;;;;;9.63;7.97;;;;;;;7.52;77.75;100067.22;5051428;28;20075;-80
2022/12/02 05:24:19;;;;;;;11.50;8.38;;;;;;;7.56;77.59;100058.06;5051350;28;20021;-79
2022/12/02 05:26:44;;;;;;;11.38;8.98;;;;;;;7.09;77.75;100002.94;5034459;28;20402;-79
2022/12/02 05:29:10;;;;;;;13.70;10.95;;;;;;;7.78;78.18;100098.88;5052301;28;20121;-79
2022/12/02 05:31:35;;;;;;;13.00;10.55;;;;;;;6.91;78.08;99957.44;5051533;28;20413;-79
2022/12/02 05:34:00;;;;;;;14.65;11.13;;;;;;;7.12;77.54;99999.22;5051495;28;20025;-79
2022/12/02 05:36:26;;;;;;;17.75;12.32;;;;;;;7.34;77.89;100039.06;5050151;28;20029;-79
2022/12/02 05:38:51;;;;;;;13.35;10.63;;;;;;;6.95;77.61;99969.28;5051329;28;20021;-79
2022/12/02 05:41:16;;;;;;;13.23;10.00;;;;;;;7.33;78.04;100052.34;5051313;28;20549;-80
2022/12/02 05:43:42;;;;;;;15.75;12.50;;;;;;;7.24;78.01;100027.75;5049997;28;20021;-79
2022/12/02 05:46:19;;;;;;;16.33;11.77;;;;;;;7.40;77.78;100044.69;5050023;28;20671;-79
2022/12/02 05:48:47;;;;;;;15.85;11.82;;;;;;;7.57;77.67;100083.38;5051196;28;20021;-79
2022/12/02 05:51:15;;;;;;;20.02;14.48;;;;;;;7.76;77.76;100104.28;5032994;28;20020;-80
2022/12/02 05:53:42;;;;;;;17.70;12.65;;;;;;;7.76;77.81;100106.09;5050997;28;20114;-79
2022/12/02 05:56:25;;;;;;;15.85;12.07;;;;;;;7.45;77.79;100061.72;5051135;28;20028;-80
2022/12/02 05:58:52;;;;;;;14.73;12.40;;;;;;;7.79;78.03;100111.06;5051039;28;20025;-79
2022/12/02 06:01:21;;;;;;;18.15;13.38;;;;;;;7.80;77.94;100107.47;5051021;28;20021;-79
2022/12/02 06:03:47;;;;;;;18.73;13.18;;;;;;;7.01;77.92;99995.78;5033131;28;20029;-80
2022/12/02 06:06:12;;;;;;;18.27;14.82;;;;;;;7.82;78.05;100108.97;5033231;28;20414;-80
2022/12/02 06:08:38;;;;;;;18.35;14.35;;;;;;;7.18;77.91;100028.34;5050969;28;20045;-79
2022/12/02 06:11:29;;;;;;;18.30;14.00;;;;;;;7.42;77.70;100055.88;5056773;28;20021;-79
2022/12/02 06:14:01;;;;;;;14.02;10.65;;;;;;;7.79;77.63;100121.56;5070564;28;20123;-79
2022/12/02 06:16:30;;;;;;;16.73;13.60;;;;;;;7.43;77.78;100074.16;5070842;28;20025;-79
2022/12/02 06:18:57;;;;;;;15.30;12.75;;;;;;;7.49;78.14;100067.50;5071289;28;20012;-80
2022/12/02 06:21:23;;;;;;;16.83;12.07;;;;;;;7.38;77.77;100068.47;5069778;28;20030;-79
2022/12/02 06:23:54;;;;;;;18.65;14.18;;;;;;;7.42;78.15;100048.00;5071049;28;20048;-79
2022/12/02 06:26:20;;;;;;;15.65;12.40;;;;;;;7.88;78.00;100120.69;5071111;28;20085;-80
2022/12/02 06:28:58;;;;;;;15.07;11.23;;;;;;;7.74;78.18;100111.50;5073218;28;20031;-79
2022/12/02 06:31:37;;;;;;;14.35;11.85;;;;;;;7.85;78.06;100127.06;5074000;28;20035;-79
2022/12/02 06:34:30;;;;;;;13.82;11.52;;;;;;;7.87;78.04;100130.38;5056296;28;20507;-79
2022/12/02 06:36:58;;;;;;;12.90;10.05;;;;;;;7.18;77.47;100028.34;5068372;28;20413;-80
2022/12/02 06:39:23;;;;;;;13.98;10.90;;;;;;;7.57;78.02;100084.19;5071002;28;20033;-79
2022/12/02 06:41:50;;;;;;;13.50;10.77;;;;;;;7.19;77.80;100029.16;5065783;28;20039;-79
2022/12/02 06:47:31;;;;;;;16.05;11.40;;;;;;;7.86;78.08;100133.16;5054169;28;20039;-79
2022/12/02 06:50:10;;;;;;;14.50;11.60;;;;;;;7.78;78.18;100138.31;5065238;28;20099;-79
2022/12/02 06:52:41;;;;;;;14.52;11.65;;;;;;;7.76;78.29;100146.34;5056029;28;20409;-78
2022/12/02 06:55:34;;;;;;;16.35;11.98;;;;;;;7.82;78.17;100147.56;5073907;28;20103;-78
2022/12/02 06:58:22;;;;;;;17.33;13.30;;;;;;;7.84;78.03;100151.72;5062373;28;20056;-79
2022/12/02 07:00:48;;;;;;;15.07;12.23;;;;;;;7.42;78.29;100101.38;5073486;28;20416;-79
2022/12/02 07:03:29;;;;;;;22.83;16.63;;;;;;;7.58;77.77;100127.06;5044647;28;20500;-79
2022/12/02 07:05:57;;;;;;;25.50;17.50;;;;;;;7.27;78.17;100055.53;5052763;28;20017;-79
2022/12/02 07:08:24;;;;;;;19.23;13.55;;;;;;;7.00;78.19;100016.94;5072352;28;20044;-78
2022/12/02 07:10:49;;;;;;;16.80;12.63;;;;;;;7.10;77.99;100033.47;5053798;28;20523;-79
2022/12/02 07:13:17;;;;;;;20.48;14.57;;;;;;;7.65;77.63;100133.41;5062236;28;20032;-78
2022/12/02 07:15:43;;;;;;;14.32;11.35;;;;;;;7.28;78.17;100068.53;5064641;28;20036;-79
2022/12/02 07:18:19;;;;;;;16.02;12.25;;;;;;;7.70;77.74;100152.19;5070908;28;20492;-79
2022/12/02 07:20:45;;;;;;;18.15;13.13;;;;;;;7.76;77.59;100150.78;5073395;28;20511;-79
2022/12/02 07:23:26;;;;;;;16.88;13.00;;;;;;;7.23;77.72;100069.94;5062272;28;20071;-79
2022/12/02 07:25:54;;;;;;;26.10;18.35;;;;;;;7.77;77.82;100155.91;5068814;28;20033;-78
2022/12/02 07:28:33;;;;;;;21.27;15.90;;;;;;;7.67;77.84;100147.22;5086222;28;20107;-78
2022/12/02 07:31:15;;;;;;;19.05;13.75;;;;;;;7.00;77.81;100058.94;5068715;28;20042;-80
2022/12/02 07:33:40;;;;;;;16.52;13.50;;;;;;;7.59;78.17;100150.56;5080560;28;20028;-79
2022/12/02 07:36:06;;;;;;;17.50;13.85;;;;;;;7.07;78.13;100059.19;5077068;28;20535;-79
2022/12/02 07:38:31;;;;;;;19.73;14.35;;;;;;;7.54;78.35;100131.78;5051715;28;20133;-80
2022/12/02 07:40:57;;;;;;;17.70;13.35;;;;;;;7.76;78.28;100184.94;5054029;28;20020;-80
2022/12/02 07:43:22;;;;;;;17.10;12.90;;;;;;;7.76;78.39;100174.44;5057594;28;20071;-79
2022/12/02 07:45:47;;;;;;;14.90;12.85;;;;;;;7.77;78.36;100189.25;5070035;28;20474;-79
2022/12/02 07:48:13;;;;;;;20.08;14.88;;;;;;;7.15;77.95;100081.16;5072930;28;20043;-79
2022/12/02 07:50:38;;;;;;;16.95;13.55;;;;;;;7.25;78.29;100107.38;5072307;28;20024;-79
2022/12/02 07:53:04;;;;;;;20.20;15.23;;;;;;;7.76;78.50;100188.41;5059655;28;20519;-79
2022/12/02 07:55:29;;;;;;;25.27;17.15;;;;;;;7.34;77.86;100136.25;5076961;28;20493;-79
2022/12/02 07:57:55;;;;;;;25.05;18.33;;;;;;;7.62;78.00;100173.09;5073187;28;20021;-79
2022/12/02 08:00:21;;;;;;;23.77;17.10;;;;;;;7.73;78.01;100177.34;5054395;28;20516;-79
2022/12/02 08:02:47;;;;;;;27.23;18.70;;;;;;;7.06;78.24;100071.50;5067603;28;20052;-79
2022/12/02 08:05:12;;;;;;;26.13;18.90;;;;;;;7.85;78.20;100205.94;5056210;28;20051;-79
2022/12/02 08:07:38;;;;;;;27.02;19.00;;;;;;;7.86;78.04;100197.09;5070096;28;20497;-79
2022/12/02 08:10:05;;;;;;;26.73;18.38;;;;;;;7.80;78.19;100202.09;5067079;28;20041;-78
2022/12/02 08:12:30;;;;;;;25.50;17.80;;;;;;;7.93;78.09;100194.69;5055268;28;20021;-78
2022/12/02 08:14:55;;;;;;;31.58;20.90;;;;;;;7.09;78.17;100059.88;5065101;28;20402;-78
2022/12/02 08:17:21;;;;;;;29.75;21.15;;;;;;;7.98;77.75;100195.94;5054932;28;20033;-79
2022/12/02 08:19:46;;;;;;;23.20;16.27;;;;;;;7.96;77.70;100204.94;5065797;28;20025;-79
2022/12/02 08:22:12;;;;;;;21.73;15.43;;;;;;;7.18;77.74;100080.03;5070666;28;20025;-79
2022/12/02 08:24:37;;;;;;;23.77;16.05;;;;;;;7.65;78.04;100155.25;5068530;28;20040;-79
2022/12/02 08:27:03;;;;;;;24.00;16.15;;;;;;;7.67;77.45;100152.47;5066143;28;20012;-79
2022/12/02 08:29:29;;;;;;;21.35;13.57;;;;;;;7.69;77.36;100168.09;5063807;28;20163;-78
2022/12/02 08:31:55;;;;;;;19.33;13.90;;;;;;;7.60;77.78;100131.19;5055603;28;20056;-79
2022/12/02 08:34:20;;;;;;;19.33;14.18;;;;;;;7.75;77.83;100157.00;5066876;28;20082;-79
2022/12/02 08:36:45;;;;;;;21.38;14.77;;;;;;;7.69;77.71;100158.41;5067214;28;20036;-79
2022/12/02 08:39:11;;;;;;;17.73;12.50;;;;;;;7.25;77.41;100073.25;5048195;28;20102;-80
2022/12/02 08:41:37;;;;;;;21.30;14.13;;;;;;;7.65;77.77;100139.47;5064478;28;20508;-80
2022/12/02 08:44:04;;;;;;;22.20;16.35;;;;;;;7.68;77.82;100151.50;5068494;28;20024;-79
2022/12/02 08:46:30;;;;;;;20.15;14.52;;;;;;;7.54;77.80;100137.03;5054715;28;20108;-80
2022/12/02 08:48:56;;;;;;;23.90;17.45;;;;;;;7.62;77.43;100136.31;5068087;28;20024;-80
2022/12/02 08:51:21;;;;;;;24.50;16.35;;;;;;;7.12;77.87;100046.47;5066800;28;20025;-79
2022/12/02 08:53:47;;;;;;;31.42;21.05;;;;;;;6.94;77.61;100017.50;5056039;28;20436;-80
2022/12/02 08:56:12;;;;;;;30.27;20.05;;;;;;;7.43;77.75;100084.66;5071737;28;20035;-79
2022/12/02 08:58:38;;;;;;;27.73;21.25;;;;;;;8.02;77.79;100169.34;5067373;28;20028;-80
2022/12/02 09:01:04;;;;;;;27.75;18.88;;;;;;;7.67;77.59;100109.59;5064072;28;21027;-80
2022/12/02 09:03:29;;;;;;;26.35;19.00;;;;;;;7.18;77.49;100017.00;5067491;28;20500;-80
2022/12/02 09:05:55;;;;;;;24.88;18.40;;;;;;;7.93;77.23;100119.28;5061567;28;20056;-79
2022/12/02 09:08:20;;;;;;;22.75;16.50;;;;;;;7.87;77.33;100116.41;5064882;28;20490;-81
2022/12/02 09:10:46;;;;;;;22.08;16.23;;;;;;;7.59;77.27;100073.53;5059216;28;20099;-80
2022/12/02 09:13:11;;;;;;;20.75;16.15;;;;;;;7.98;76.95;100118.84;5066207;28;20031;-80
2022/12/02 09:15:36;;;;;;;30.15;19.02;;;;;;;7.90;76.90;100101.16;5064228;28;20559;-80
2022/12/02 09:18:02;;;;;;;21.45;16.50;;;;;;;8.52;77.19;100190.84;5064167;28;20119;-81
2022/12/02 09:20:27;;;;;;;17.27;13.98;;;;;;;8.22;77.41;100137.53;5069219;28;20086;-81
2022/12/02 09:22:53;;;;;;;18.02;13.80;;;;;;;8.33;77.22;100149.69;5067824;28;20092;-80
2022/12/02 09:25:18;;;;;;;21.42;15.90;;;;;;;7.86;77.34;100070.06;5054017;28;20516;-79
2022/12/02 09:27:43;;;;;;;23.13;15.98;;;;;;;7.91;77.09;100079.16;5064599;28;20032;-80
2022/12/02 09:30:10;;;;;;;21.63;15.02;;;;;;;8.48;77.12;100202.63;5051561;28;20043;-81
2022/12/02 09:32:35;;;;;;;20.48;15.27;;;;;;;7.95;77.00;100111.25;5051951;28;20034;-80
2022/12/02 09:35:01;;;;;;;14.48;10.75;;;;;;;8.56;77.21;100198.28;5067057;28;20107;-80
2022/12/02 09:37:27;;;;;;;14.02;9.38;;;;;;;8.26;77.15;100162.56;5068996;28;20478;-80
2022/12/02 09:39:53;;;;;;;14.95;9.48;;;;;;;8.56;77.00;100200.91;5065699;28;20032;-80
2022/12/02 09:42:18;;;;;;;13.38;10.18;;;;;;;8.19;76.97;100143.09;5066153;28;20109;-80
2022/12/02 09:44:45;;;;;;;13.00;9.93;;;;;;;7.74;77.08;100072.06;5068593;28;20093;-80
2022/12/02 09:47:12;;;;;;;15.50;11.43;;;;;;;7.75;77.16;100081.63;5061919;28;20111;-80
2022/12/02 09:49:37;;;;;;;12.27;8.07;;;;;;;7.79;77.29;100111.06;5051959;28;20059;-80
2022/12/02 09:52:06;;;;;;;10.00;7.47;;;;;;;8.00;77.15;100132.66;5070886;28;20048;-80
2022/12/02 09:54:31;;;;;;;9.82;7.47;;;;;;;7.30;77.42;100014.06;5050812;28;20052;-80
2022/12/02 09:56:58;;;;;;;11.68;7.90;;;;;;;7.95;77.52;100164.66;5067842;28;20090;-80
2022/12/02 09:59:23;;;;;;;11.52;9.02;;;;;;;7.92;77.73;100112.38;5065109;28;20043;-80
2022/12/02 10:01:49;;;;;;;12.48;9.43;;;;;;;7.81;77.92;100093.34;5065097;28;20038;-80
2022/12/02 10:04:20;;;;;;;16.52;11.73;;;;;;;8.52;77.79;100193.47;5055075;28;20063;-80
2022/12/02 10:06:46;;;;;;;20.52;14.55;;;;;;;8.34;77.79;100166.31;5069117;28;20060;-80
2022/12/02 10:09:20;;;;;;;14.07;9.82;;;;;;;8.11;77.84;100134.25;5049907;28;20565;-80
2022/12/02 10:11:45;;;;;;;11.00;8.30;;;;;;;7.68;77.59;100084.97;5053426;28;20466;-80
2022/12/02 10:14:13;;;;;;;17.13;11.80;;;;;;;7.98;77.98;100106.53;5054754;28;20064;-80
2022/12/02 10:16:39;;;;;;;15.30;9.98;;;;;;;8.18;77.88;100138.81;5067861;28;20048;-80
2022/12/02 10:19:06;;;;;;;16.48;12.50;;;;;;;7.90;77.30;100081.94;5069066;28;20024;-80
2022/12/02 10:21:32;;;;;;;18.00;12.25;;;;;;;8.60;77.77;100190.91;5071922;28;20040;-80
2022/12/02 10:23:58;;;;;;;15.98;11.60;;;;;;;8.64;77.78;100187.00;5073352;28;20028;-80
2022/12/02 10:26:24;;;;;;;14.15;11.02;;;;;;;8.44;77.76;100165.25;5070851;28;20039;-80
2022/12/02 10:29:05;;;;;;;13.32;10.27;;;;;;;8.65;77.32;100187.84;5067675;28;20101;-81
2022/12/02 10:31:31;;;;;;;15.18;10.18;;;;;;;8.67;77.56;100191.97;5062151;28;20024;-80
2022/12/02 10:34:05;;;;;;;14.85;10.18;;;;;;;8.67;77.31;100189.34;5065582;28;20423;-80
2022/12/02 10:36:32;;;;;;;17.05;11.98;;;;;;;8.69;77.29;100179.50;5070522;28;20029;-81
2022/12/02 10:39:22;;;;;;;14.70;12.13;;;;;;;8.05;77.11;100083.09;5057824;28;20021;-80
2022/12/02 10:42:18;;;;;;;18.52;12.70;;;;;;;8.69;77.34;100173.41;5070256;28;20055;-80
2022/12/02 10:44:45;;;;;;;24.30;15.52;;;;;;;8.59;77.34;100173.47;5071973;28;20103;-80
2022/12/02 10:47:22;;;;;;;28.58;15.57;;;;;;;8.04;77.29;100081.44;5071133;28;20036;-80
2022/12/02 10:49:56;;;;;;;26.00;14.07;;;;;;;8.04;76.91;100062.19;5070990;28;20668;-80
2022/12/02 10:52:26;;;;;;;19.77;14.35;;;;;;;8.34;76.88;100100.53;5066432;28;20431;-78
2022/12/02 10:54:55;;;;;;;23.38;14.13;;;;;;;8.82;76.44;100184.38;5065066;28;20021;-80
2022/12/02 10:57:29;;;;;;;23.38;13.73;;;;;;;8.83;76.70;100170.22;5070072;28;20113;-79
2022/12/02 10:59:56;;;;;;;24.75;14.55;;;;;;;8.23;76.49;100078.69;5054860;28;20039;-80
2022/12/02 11:02:29;;;;;;;21.73;14.70;;;;;;;8.91;76.70;100172.94;5066246;28;20051;-79
2022/12/02 11:04:54;;;;;;;20.65;13.35;;;;;;;8.42;76.41;100092.72;5066080;28;20028;-80
2022/12/02 11:07:21;;;;;;;23.17;14.63;;;;;;;8.96;76.03;100172.50;5073471;28;20025;-80
2022/12/02 11:09:52;;;;;;;21.45;15.02;;;;;;;8.91;76.17;100171.13;5069798;28;20040;-80
2022/12/02 11:12:57;;;;;;;29.42;19.23;;;;;;;8.17;75.94;100058.22;5065557;28;20029;-78
2022/12/02 11:15:47;;;;;;;34.60;20.95;;;;;;;8.50;75.81;100121.72;5065802;28;20036;-80
2022/12/02 11:18:19;;;;;;;36.13;24.63;;;;;;;8.82;75.81;100173.84;5059105;28;20028;-79
2022/12/02 11:20:45;;;;;;;38.67;26.33;;;;;;;8.77;76.02;100176.09;5069124;28;20029;-79
2022/12/02 11:23:16;;;;;;;45.33;26.85;;;;;;;8.78;76.04;100172.50;5068123;28;20568;-79
2022/12/02 11:25:41;;;;;;;34.88;21.98;;;;;;;8.77;75.96;100173.47;5070500;28;20036;-80
2022/12/02 11:28:28;;;;;;;39.83;22.13;;;;;;;8.75;75.88;100178.88;5068309;28;20024;-80
2022/12/02 11:31:09;;;;;;;55.63;26.88;;;;;;;8.76;76.06;100180.53;5070849;28;20051;-80
2022/12/02 11:33:46;;;;;;;50.90;26.08;;;;;;;8.74;75.92;100177.22;5069560;28;20036;-80
2022/12/02 11:36:20;;;;;;;53.35;29.02;;;;;;;8.78;75.96;100178.59;5070111;28;20151;-80
2022/12/02 11:38:50;;;;;;;61.70;35.22;;;;;;;8.62;76.00;100162.63;5071519;28;20032;-80